sensor_id;sensor_type;location;lat;lon;timestamp;pressure;altitude;pressure_sealevel;temperature;humidity
78900;BME280;68288;43.572;1.464;2023-02-28T08:28:37;100558.88;;;21.52;12.71
78900;BME280;68288;43.572;1.464;2023-02-28T08:32:22;100560.31;;;21.40;17.58
78900;BME280;68288;43.572;1.464;2023-02-28T08:34:48;100558.48;;;22.11;11.69
78900;BME280;68288;43.572;1.464;2023-02-28T08:37:13;100558.61;;;22.13;11.78
78900;BME280;68288;43.572;1.464;2023-02-28T08:39:39;100566.03;;;22.28;11.48
78900;BME280;68288;43.572;1.464;2023-02-28T08:42:04;100561.89;;;22.56;11.51
78900;BME280;68288;43.572;1.464;2023-02-28T08:44:29;100570.09;;;21.95;11.97
78900;BME280;68288;43.572;1.464;2023-02-28T08:46:54;100567.97;;;22.60;11.64
78900;BME280;68288;43.572;1.464;2023-02-28T08:56:04;100571.92;;;21.49;11.52
78900;BME280;68288;43.572;1.464;2023-02-28T08:58:27;100579.91;;;19.88;12.23
78900;BME280;68288;43.572;1.464;2023-02-28T09:00:53;100576.12;;;20.92;14.36
78900;BME280;68288;43.572;1.464;2023-02-28T09:11:11;100563.23;;;20.31;12.87
78900;BME280;68288;43.572;1.464;2023-02-28T09:13:36;100567.81;;;21.00;12.42
78900;BME280;68288;43.572;1.464;2023-02-28T09:16:06;100572.58;;;20.73;12.29
78900;BME280;68288;43.572;1.464;2023-02-28T09:18:26;100567.70;;;21.59;12.87
78900;BME280;68288;43.572;1.464;2023-02-28T09:21:04;100576.67;;;20.24;11.90
78900;BME280;68288;43.572;1.464;2023-02-28T14:18:49;100454.04;;;23.13;8.61
78900;BME280;68288;43.572;1.464;2023-02-28T14:32:22;100467.52;;;23.90;8.36
78900;BME280;68288;43.572;1.464;2023-02-28T14:34:45;100471.72;;;23.23;9.36
78900;BME280;68288;43.572;1.464;2023-02-28T14:37:10;100479.68;;;22.46;10.58
78900;BME280;68288;43.572;1.464;2023-02-28T14:39:31;100470.64;;;22.59;8.76
78900;BME280;68288;43.572;1.464;2023-02-28T14:41:56;100467.43;;;21.31;10.88
78900;BME280;68288;43.572;1.464;2023-02-28T14:44:23;100464.99;;;23.58;9.86
78900;BME280;68288;43.572;1.464;2023-02-28T14:46:49;100463.48;;;24.41;7.97
78900;BME280;68288;43.572;1.464;2023-02-28T14:49:17;100466.76;;;21.98;7.84
78900;BME280;68288;43.572;1.464;2023-02-28T14:51:36;100469.66;;;24.75;7.33
78900;BME280;68288;43.572;1.464;2023-02-28T14:54:03;100464.58;;;23.36;7.77
78900;BME280;68288;43.572;1.464;2023-02-28T14:56:28;100463.68;;;23.98;7.54
78900;BME280;68288;43.572;1.464;2023-02-28T14:58:53;100467.75;;;23.90;7.89
78900;BME280;68288;43.572;1.464;2023-02-28T15:01:19;100468.75;;;23.65;8.04
78900;BME280;68288;43.572;1.464;2023-02-28T15:03:41;100481.54;;;21.30;11.14
78900;BME280;68288;43.572;1.464;2023-02-28T15:06:12;100481.18;;;20.77;10.05
78900;BME280;68288;43.572;1.464;2023-02-28T15:08:32;100483.82;;;23.73;8.49
78900;BME280;68288;43.572;1.464;2023-02-28T15:10:59;100473.61;;;23.49;8.70
78900;BME280;68288;43.572;1.464;2023-02-28T15:13:24;100467.57;;;23.37;8.63
78900;BME280;68288;43.572;1.464;2023-02-28T15:15:52;100472.15;;;22.46;9.24
78900;BME280;68288;43.572;1.464;2023-02-28T15:18:21;100473.54;;;22.63;9.07
78900;BME280;68288;43.572;1.464;2023-02-28T15:20:39;100472.25;;;22.59;9.34
78900;BME280;68288;43.572;1.464;2023-02-28T15:23:02;100472.32;;;23.42;9.59
78900;BME280;68288;43.572;1.464;2023-02-28T15:25:27;100482.57;;;23.48;8.96
78900;BME280;68288;43.572;1.464;2023-02-28T15:27:54;100481.51;;;21.90;9.42
78900;BME280;68288;43.572;1.464;2023-02-28T15:30:19;100468.13;;;22.66;9.31
78900;BME280;68288;43.572;1.464;2023-02-28T15:32:42;100475.85;;;22.54;9.32
